createdAt,value
2023-02-22T00:01:19.086Z,21.65
2023-02-22T00:04:22.016Z,21.65
2023-02-22T00:07:26.318Z,21.64
2023-02-22T00:10:29.370Z,21.65
2023-02-22T00:13:32.311Z,21.65
2023-02-22T00:16:35.345Z,21.65
2023-02-22T00:19:38.565Z,21.64
2023-02-22T00:22:43.783Z,21.64
2023-02-22T00:25:47.491Z,21.64
2023-02-22T00:28:52.731Z,21.64
2023-02-22T00:31:55.805Z,21.63
2023-02-22T00:34:59.012Z,21.63
2023-02-22T00:38:04.340Z,21.62
2023-02-22T00:41:07.465Z,21.62
2023-02-22T00:44:10.395Z,21.61
2023-02-22T00:47:15.341Z,21.60
2023-02-22T00:50:19.574Z,21.60
2023-02-22T00:53:25.210Z,21.61
2023-02-22T00:56:28.208Z,21.61
2023-02-22T00:59:31.783Z,21.61
2023-02-22T01:02:35.297Z,21.61
2023-02-22T01:05:38.741Z,21.60
2023-02-22T01:08:47.421Z,21.60
2023-02-22T01:11:55.189Z,21.59
2023-02-22T01:14:59.551Z,21.60
2023-02-22T01:18:02.559Z,21.59
2023-02-22T01:21:06.514Z,21.58
2023-02-22T01:24:11.548Z,21.58
2023-02-22T01:27:15.120Z,21.58
2023-02-22T01:30:22.566Z,21.59
2023-02-22T01:33:27.148Z,21.59
2023-02-22T01:36:30.027Z,21.58
2023-02-22T01:39:34.555Z,21.60
2023-02-22T01:42:38.128Z,21.59
2023-02-22T01:45:55.384Z,21.58
2023-02-22T01:49:02.242Z,21.58
2023-02-22T01:52:09.929Z,21.58
2023-02-22T01:55:14.325Z,21.59
2023-02-22T01:58:19.846Z,21.59
2023-02-22T02:01:25.226Z,21.58
2023-02-22T02:04:29.109Z,21.59
2023-02-22T02:07:32.048Z,21.59
2023-02-22T02:10:36.634Z,21.59
2023-02-22T02:13:41.996Z,21.60
2023-02-22T02:16:48.661Z,21.61
2023-02-22T02:19:59.351Z,21.61
2023-02-22T02:23:13.370Z,21.60
2023-02-22T02:26:48.594Z,21.60
2023-02-22T02:30:21.478Z,21.59
2023-02-22T02:33:32.745Z,21.60
2023-02-22T02:36:43.034Z,21.59
2023-02-22T02:39:54.145Z,21.59
2023-02-22T02:43:03.054Z,21.59
2023-02-22T02:46:11.203Z,21.59
2023-02-22T02:49:20.266Z,21.59
2023-02-22T02:52:26.105Z,21.58
2023-02-22T02:55:31.610Z,21.59
2023-02-22T02:58:34.912Z,21.59
2023-02-22T03:01:52.902Z,21.59
2023-02-22T03:05:17.659Z,21.60
2023-02-22T03:08:28.880Z,21.60
2023-02-22T03:11:43.142Z,21.60
2023-02-22T03:14:55.989Z,21.59
2023-02-22T03:18:07.631Z,21.59
2023-02-22T03:21:22.753Z,21.59
2023-02-22T03:24:31.248Z,21.59
2023-02-22T03:27:43.595Z,21.59
2023-02-22T03:30:52.825Z,21.59
2023-02-22T03:34:01.938Z,21.59
2023-02-22T03:37:15.918Z,21.59
2023-02-22T03:40:26.409Z,21.59
2023-02-22T03:43:38.046Z,21.58
2023-02-22T03:46:47.318Z,21.59
2023-02-22T03:49:55.703Z,21.59
2023-02-22T03:53:00.112Z,21.59
2023-02-22T03:56:10.468Z,21.58
2023-02-22T03:59:14.733Z,21.59
2023-02-22T04:02:19.079Z,21.59
2023-02-22T04:05:24.849Z,21.59
2023-02-22T04:08:30.265Z,21.59
2023-02-22T04:11:33.306Z,21.61
2023-02-22T04:14:36.482Z,21.61
2023-02-22T04:17:39.425Z,21.61
2023-02-22T04:20:45.352Z,21.61
2023-02-22T04:23:57.764Z,21.62
2023-02-22T04:27:00.723Z,21.61
2023-02-22T04:30:05.957Z,21.61
2023-02-22T04:33:11.784Z,21.60
2023-02-22T04:36:16.109Z,21.60
2023-02-22T04:39:21.820Z,21.59
2023-02-22T04:42:27.117Z,21.59
2023-02-22T04:45:31.437Z,21.58
2023-02-22T04:48:34.673Z,21.58
2023-02-22T04:51:37.669Z,21.59
2023-02-22T04:54:47.690Z,21.58
2023-02-22T04:57:50.786Z,21.58
2023-02-22T05:00:54.125Z,21.59
2023-02-22T05:03:57.145Z,21.60
2023-02-22T05:07:00.112Z,21.60
2023-02-22T05:10:05.189Z,21.61
2023-02-22T05:13:09.271Z,21.62
2023-02-22T05:16:12.566Z,21.61
2023-02-22T05:19:15.594Z,21.62
2023-02-22T05:22:18.820Z,21.62
2023-02-22T05:25:23.295Z,21.61
2023-02-22T05:28:26.946Z,21.62
2023-02-22T05:31:30.056Z,21.61
2023-02-22T05:34:33.780Z,21.63
2023-02-22T05:37:37.234Z,21.64
2023-02-22T05:40:42.561Z,21.65
2023-02-22T05:43:46.082Z,21.65
2023-02-22T05:46:49.178Z,21.64
2023-02-22T05:49:52.193Z,21.66
2023-02-22T05:52:55.517Z,21.66
2023-02-22T05:56:00.042Z,21.67
2023-02-22T05:59:03.241Z,21.67
2023-02-22T06:02:06.329Z,21.67
2023-02-22T06:05:09.827Z,21.67
2023-02-22T06:08:12.929Z,21.67
2023-02-22T06:11:17.721Z,21.67
2023-02-22T06:14:21.029Z,21.67
2023-02-22T06:17:24.049Z,21.68
2023-02-22T06:20:28.669Z,21.68
2023-02-22T06:23:31.811Z,21.67
2023-02-22T06:26:36.368Z,21.67
2023-02-22T06:29:39.364Z,21.68
2023-02-22T06:32:42.515Z,21.67
2023-02-22T06:35:46.807Z,21.68
2023-02-22T06:38:49.799Z,21.68
2023-02-22T06:41:56.379Z,21.67
2023-02-22T06:44:59.376Z,21.68
2023-02-22T06:48:02.499Z,21.68
2023-02-22T06:51:08.242Z,21.67
2023-02-22T06:54:11.690Z,21.68
2023-02-22T06:57:16.196Z,21.69
2023-02-22T07:00:21.012Z,21.69
2023-02-22T07:03:24.065Z,21.70
2023-02-22T07:06:27.100Z,21.70
2023-02-22T07:09:30.212Z,21.70
2023-02-22T07:12:34.641Z,21.71
2023-02-22T07:15:38.009Z,21.71
2023-02-22T07:18:41.040Z,21.72
2023-02-22T07:21:44.077Z,21.71
2023-02-22T07:24:47.876Z,21.70
2023-02-22T07:27:53.459Z,21.69
2023-02-22T07:30:56.496Z,21.69
2023-02-22T07:33:59.509Z,21.68
2023-02-22T07:37:02.729Z,21.68
2023-02-22T07:40:06.239Z,21.67
2023-02-22T07:43:18.453Z,21.67
2023-02-22T07:46:21.793Z,21.65
2023-02-22T07:49:24.791Z,21.65
2023-02-22T07:52:27.797Z,21.65
2023-02-22T07:55:32.894Z,21.65
2023-02-22T07:58:37.252Z,21.65
2023-02-22T08:01:40.433Z,21.65
2023-02-22T08:04:43.921Z,21.65
2023-02-22T08:07:46.935Z,21.64
2023-02-22T08:10:51.489Z,21.63
2023-02-22T08:13:55.913Z,21.63
2023-02-22T08:16:58.892Z,21.62
2023-02-22T08:20:03.284Z,21.62
2023-02-22T08:23:08.146Z,21.62
2023-02-22T08:26:15.616Z,21.62
2023-02-22T08:29:20.023Z,21.61
2023-02-22T08:32:23.904Z,21.61
2023-02-22T08:35:28.098Z,21.61
2023-02-22T08:38:32.696Z,21.61
2023-02-22T08:41:35.617Z,21.62
2023-02-22T08:44:40.672Z,21.63
2023-02-22T08:47:44.202Z,21.63
2023-02-22T08:50:47.275Z,21.62
2023-02-22T08:53:50.221Z,21.62
2023-02-22T08:56:53.173Z,21.61
2023-02-22T08:59:57.459Z,21.62
2023-02-22T09:03:00.617Z,21.61
2023-02-22T09:06:05.049Z,21.60
2023-02-22T09:09:08.104Z,21.61
2023-02-22T09:12:11.301Z,21.61
2023-02-22T09:15:16.374Z,21.61
2023-02-22T09:18:21.105Z,21.62
2023-02-22T09:21:24.173Z,21.62
2023-02-22T09:24:27.970Z,21.63
2023-02-22T09:27:30.949Z,21.63
2023-02-22T09:30:37.393Z,21.63
2023-02-22T09:33:42.355Z,21.65
2023-02-22T09:36:46.627Z,21.64
2023-02-22T09:39:51.289Z,21.64
2023-02-22T09:43:03.575Z,21.65
2023-02-22T09:46:19.409Z,21.65
2023-02-22T09:49:26.110Z,21.64
2023-02-22T09:52:32.519Z,21.64
2023-02-22T09:55:39.102Z,21.63
2023-02-22T09:58:46.016Z,21.62
2023-02-22T10:01:58.406Z,21.64
2023-02-22T10:05:06.670Z,21.65
2023-02-22T10:08:14.245Z,21.65
2023-02-22T10:11:28.917Z,21.65
2023-02-22T10:15:06.304Z,21.64
2023-02-22T10:18:33.802Z,21.64
2023-02-22T10:21:55.137Z,21.63
2023-02-22T10:25:02.318Z,21.62
2023-02-22T10:28:14.521Z,21.62
2023-02-22T10:31:22.890Z,21.62
2023-02-22T10:34:29.358Z,21.61
2023-02-22T10:37:34.368Z,21.61
2023-02-22T10:40:39.325Z,21.62
2023-02-22T10:43:44.144Z,21.62
2023-02-22T10:46:48.461Z,21.62
2023-02-22T10:49:56.642Z,21.63
2023-02-22T10:52:59.571Z,21.63
2023-02-22T10:56:15.821Z,21.63
2023-02-22T10:59:29.701Z,21.63
2023-02-22T11:02:35.168Z,21.63
2023-02-22T11:05:41.327Z,21.63
2023-02-22T11:08:46.466Z,21.62
2023-02-22T11:11:51.197Z,21.62
2023-02-22T11:14:54.414Z,21.62
2023-02-22T11:18:01.387Z,21.61
2023-02-22T11:21:10.280Z,21.61
2023-02-22T11:27:28.451Z,21.62
2023-02-22T11:30:35.139Z,21.63
2023-02-22T11:33:38.993Z,21.63
2023-02-22T11:36:44.170Z,21.63
2023-02-22T11:39:47.229Z,21.63
2023-02-22T11:43:08.326Z,21.64
2023-02-22T11:46:14.790Z,21.63
2023-02-22T11:49:20.108Z,21.62
2023-02-22T11:52:30.970Z,21.63
2023-02-22T11:55:43.233Z,21.63
2023-02-22T11:58:51.657Z,21.62
2023-02-22T12:01:59.979Z,21.62
2023-02-22T12:05:24.093Z,21.62
2023-02-22T12:08:37.661Z,21.63
2023-02-22T12:11:51.204Z,21.62
2023-02-22T12:15:13.680Z,21.64
2023-02-22T12:18:23.193Z,21.63
2023-02-22T12:21:29.856Z,21.62
2023-02-22T12:24:40.796Z,21.64
2023-02-22T12:27:49.252Z,21.63
2023-02-22T12:30:58.349Z,21.62
2023-02-22T12:34:09.522Z,21.62
2023-02-22T12:37:18.573Z,21.62
2023-02-22T12:40:31.808Z,21.62
2023-02-22T12:43:41.764Z,21.61
2023-02-22T12:46:49.346Z,21.62
2023-02-22T12:50:00.378Z,21.62
2023-02-22T12:53:14.008Z,21.62
2023-02-22T12:56:25.281Z,21.63
2023-02-22T12:59:34.453Z,21.63
2023-02-22T13:02:43.681Z,21.63
2023-02-22T13:05:53.612Z,21.62
2023-02-22T13:09:09.695Z,21.62
2023-02-22T13:12:20.298Z,21.63
2023-02-22T13:15:30.370Z,21.62
2023-02-22T13:18:42.023Z,21.63
2023-02-22T13:21:50.670Z,21.62
2023-02-22T13:25:12.276Z,21.62
2023-02-22T13:28:23.887Z,21.62
2023-02-22T13:31:47.602Z,21.62
2023-02-22T13:35:03.025Z,21.62
2023-02-22T13:38:41.898Z,21.63
2023-02-22T13:42:09.501Z,21.63
2023-02-22T13:45:53.146Z,21.63
2023-02-22T13:49:34.283Z,21.63
2023-02-22T13:52:40.728Z,21.62
2023-02-22T13:55:49.597Z,21.64
2023-02-22T13:58:54.907Z,21.63
2023-02-22T14:02:04.253Z,21.62
2023-02-22T14:05:51.127Z,21.62
2023-02-22T14:08:54.205Z,21.62
2023-02-22T14:11:57.838Z,21.62
2023-02-22T14:15:29.809Z,21.64
2023-02-22T14:18:38.938Z,21.64
2023-02-22T14:21:57.921Z,21.64
2023-02-22T14:25:00.873Z,21.65
2023-02-22T14:28:06.288Z,21.65
2023-02-22T14:31:17.464Z,21.64
2023-02-22T14:34:42.504Z,21.64
2023-02-22T14:37:50.600Z,21.64
2023-02-22T14:40:55.237Z,21.63
2023-02-22T14:44:03.785Z,21.63
2023-02-22T14:47:08.852Z,21.62
2023-02-22T14:50:23.175Z,21.62
2023-02-22T14:53:30.843Z,21.62
2023-02-22T14:56:41.296Z,21.61
2023-02-22T15:00:02.596Z,21.62
2023-02-22T15:03:05.888Z,21.62
2023-02-22T15:06:16.680Z,21.63
2023-02-22T15:09:27.711Z,21.63
2023-02-22T15:12:32.114Z,21.63
2023-02-22T15:15:36.014Z,21.62
2023-02-22T15:18:42.984Z,21.62
2023-02-22T15:21:50.023Z,21.62
2023-02-22T15:25:00.173Z,21.62
2023-02-22T15:28:05.318Z,21.62
2023-02-22T15:31:28.123Z,21.63
2023-02-22T15:34:33.109Z,21.62
2023-02-22T15:37:37.586Z,21.62
2023-02-22T15:40:43.246Z,21.63
2023-02-22T15:43:46.506Z,21.63
2023-02-22T15:46:49.643Z,21.63
2023-02-22T15:50:23.727Z,21.63
2023-02-22T15:53:32.525Z,21.64
2023-02-22T15:56:36.186Z,21.64
2023-02-22T15:59:44.884Z,21.62
2023-02-22T16:02:49.015Z,21.62
2023-02-22T16:05:55.616Z,21.62
2023-02-22T16:09:02.307Z,21.62
2023-02-22T16:12:10.297Z,21.62
2023-02-22T16:15:18.624Z,21.61
2023-02-22T16:18:28.484Z,21.61
2023-02-22T16:21:53.493Z,21.61
2023-02-22T16:25:16.645Z,21.62
2023-02-22T16:28:28.002Z,21.63
2023-02-22T16:31:33.880Z,21.63
2023-02-22T16:34:36.964Z,21.64
2023-02-22T16:37:39.980Z,21.64
2023-02-22T16:40:50.522Z,21.64
2023-02-22T16:43:55.375Z,21.65
2023-02-22T16:47:00.553Z,21.64
2023-02-22T16:50:03.732Z,21.65
2023-02-22T16:53:06.743Z,21.65
2023-02-22T16:56:16.163Z,21.65
2023-02-22T16:59:19.805Z,21.67
2023-02-22T17:02:23.189Z,21.69
2023-02-22T17:05:26.529Z,21.71
2023-02-22T17:08:29.581Z,21.72
2023-02-22T17:11:34.638Z,21.73
2023-02-22T17:14:37.781Z,21.73
2023-02-22T17:17:40.705Z,21.76
2023-02-22T17:20:44.998Z,21.75
2023-02-22T17:23:48.430Z,21.77
2023-02-22T17:26:53.138Z,21.77
2023-02-22T17:29:56.257Z,21.77
2023-02-22T17:33:03.611Z,21.77
2023-02-22T17:36:07.369Z,21.77
2023-02-22T17:39:10.972Z,21.76
2023-02-22T17:42:15.558Z,21.77
2023-02-22T17:45:18.533Z,21.77
2023-02-22T17:48:23.993Z,21.78
2023-02-22T17:51:27.417Z,21.78
2023-02-22T17:54:30.573Z,21.79
2023-02-22T17:57:35.613Z,21.80
2023-02-22T18:00:39.468Z,21.80
2023-02-22T18:03:42.421Z,21.80
2023-02-22T18:06:46.331Z,21.80
2023-02-22T18:09:49.913Z,21.81
2023-02-22T18:12:55.163Z,21.80
2023-02-22T18:16:00.040Z,21.80
2023-02-22T18:19:03.439Z,21.79
2023-02-22T18:22:08.289Z,21.79
2023-02-22T18:25:13.744Z,21.78
2023-02-22T18:28:19.278Z,21.78
2023-02-22T18:31:24.889Z,21.78
2023-02-22T18:34:28.173Z,21.78
2023-02-22T18:37:31.222Z,21.78
2023-02-22T18:40:34.786Z,21.78
2023-02-22T18:43:39.908Z,21.78
2023-02-22T18:46:44.499Z,21.77
2023-02-22T18:49:48.612Z,21.77
2023-02-22T18:52:51.688Z,21.76
2023-02-22T18:55:54.784Z,21.76
2023-02-22T18:59:01.644Z,21.77
2023-02-22T19:02:04.696Z,21.76
2023-02-22T19:05:09.874Z,21.75
2023-02-22T19:08:13.035Z,21.74
2023-02-22T19:11:19.313Z,21.74
2023-02-22T19:14:23.747Z,21.74
2023-02-22T19:17:28.576Z,21.75
2023-02-22T19:20:33.300Z,21.74
2023-02-22T19:23:37.488Z,21.76
2023-02-22T19:26:50.220Z,21.75
2023-02-22T19:29:54.809Z,21.76
2023-02-22T19:32:57.871Z,21.75
2023-02-22T19:36:01.014Z,21.75
2023-02-22T19:39:04.810Z,21.75
2023-02-22T19:42:09.720Z,21.75
2023-02-22T19:45:17.046Z,21.74
2023-02-22T19:48:20.771Z,21.74
2023-02-22T19:51:25.774Z,21.74
2023-02-22T19:54:29.079Z,21.74
2023-02-22T19:57:32.421Z,21.75
2023-02-22T20:00:37.220Z,21.76
2023-02-22T20:03:41.688Z,21.77
2023-02-22T20:06:46.495Z,21.77
2023-02-22T20:09:49.776Z,21.77
2023-02-22T20:12:52.766Z,21.77
2023-02-22T20:15:57.109Z,21.77
2023-02-22T20:19:00.561Z,21.76
2023-02-22T20:22:03.873Z,21.77
2023-02-22T20:25:07.410Z,21.76
2023-02-22T20:28:11.049Z,21.77
2023-02-22T20:31:17.179Z,21.77
2023-02-22T20:34:20.369Z,21.76
2023-02-22T20:37:23.301Z,21.76
2023-02-22T20:40:26.364Z,21.76
2023-02-22T20:43:29.384Z,21.76
2023-02-22T20:46:36.127Z,21.77
2023-02-22T20:49:39.800Z,21.77
2023-02-22T20:52:42.940Z,21.77
2023-02-22T20:55:50.381Z,21.77
2023-02-22T20:58:53.653Z,21.78
2023-02-22T21:01:58.237Z,21.78
2023-02-22T21:05:01.308Z,21.78
2023-02-22T21:08:04.291Z,21.78
2023-02-22T21:11:11.820Z,21.78
2023-02-22T21:14:18.755Z,21.78
2023-02-22T21:17:28.782Z,21.78
2023-02-22T21:20:32.074Z,21.79
2023-02-22T21:23:35.080Z,21.78
2023-02-22T21:26:38.152Z,21.79
2023-02-22T21:29:41.240Z,21.78
2023-02-22T21:32:45.739Z,21.80
2023-02-22T21:35:49.215Z,21.79
2023-02-22T21:38:54.902Z,21.79
2023-02-22T21:42:00.532Z,21.78
2023-02-22T21:45:03.788Z,21.79
2023-02-22T21:48:08.476Z,21.79
2023-02-22T21:51:13.896Z,21.78
2023-02-22T21:54:16.959Z,21.78
2023-02-22T21:57:20.463Z,21.79
2023-02-22T22:00:29.347Z,21.77
2023-02-22T22:03:36.281Z,21.78
2023-02-22T22:06:39.274Z,21.77
2023-02-22T22:09:43.284Z,21.77
2023-02-22T22:12:46.498Z,21.77
2023-02-22T22:15:49.726Z,21.77
2023-02-22T22:18:54.156Z,21.78
2023-02-22T22:21:57.515Z,21.77
2023-02-22T22:25:03.398Z,21.76
2023-02-22T22:28:07.812Z,21.77
2023-02-22T22:31:12.246Z,21.76
2023-02-22T22:34:16.727Z,21.76
2023-02-22T22:37:22.606Z,21.75
2023-02-22T22:40:25.638Z,21.73
2023-02-22T22:43:30.285Z,21.72
2023-02-22T22:46:33.404Z,21.69
2023-02-22T22:49:40.378Z,21.69
2023-02-22T22:52:43.357Z,21.68
2023-02-22T22:55:46.364Z,21.67
2023-02-22T22:58:51.083Z,21.67
2023-02-22T23:01:56.622Z,21.67
2023-02-22T23:05:01.181Z,21.66
2023-02-22T23:08:05.723Z,21.67
2023-02-22T23:11:09.635Z,21.67
2023-02-22T23:14:14.934Z,21.66
2023-02-22T23:17:31.453Z,21.66
2023-02-22T23:20:39.070Z,21.67
2023-02-22T23:23:42.221Z,21.68
2023-02-22T23:26:48.636Z,21.68
2023-02-22T23:29:52.520Z,21.68
2023-02-22T23:32:57.105Z,21.68
2023-02-22T23:36:01.429Z,21.68
2023-02-22T23:39:06.513Z,21.69
2023-02-22T23:42:09.690Z,21.68
2023-02-22T23:45:22.421Z,21.68
2023-02-22T23:48:26.284Z,21.67
2023-02-22T23:51:39.235Z,21.67
2023-02-22T23:54:44.103Z,21.65
2023-02-22T23:57:47.573Z,21.65
